Time;durP1;ratioP1;P1;durP2;ratioP2;P2;SDS_P1;SDS_P2;PMS_P1;PMS_P2;Temp;Humidity;BMP_temperature;BMP_pressure;BME280_temperature;BME280_humidity;BME280_pressure;Samples;Min_cycle;Max_cycle;Signal;HPM_P1;HPM_P2
2022/10/24 04:16:22;;;;;;;3.92;1.85;;;;;;;12.15;72.11;101933.28;5058757;27;20388;-84
2022/10/24 04:18:48;;;;;;;6.28;2.67;;;;;;;12.35;72.07;101946.41;5046775;28;20461;-84
2022/10/24 04:21:14;;;;;;;3.63;2.35;;;;;;;12.47;71.27;101928.72;5037946;28;20464;-84
2022/10/24 04:23:41;;;;;;;8.80;3.17;;;;;;;12.63;70.53;101941.09;5025435;28;20415;-83
2022/10/24 04:26:07;;;;;;;4.05;2.70;;;;;;;12.75;70.04;101938.94;5008848;28;20077;-85
2022/10/24 04:28:33;;;;;;;7.05;3.53;;;;;;;12.90;69.49;101939.22;5008662;28;20388;-92
2022/10/24 04:30:58;;;;;;;5.75;2.92;;;;;;;12.92;69.04;101941.75;5001036;28;20059;-89
2022/10/24 04:33:24;;;;;;;5.90;2.83;;;;;;;12.86;68.24;101919.44;5029867;28;20128;-89
2022/10/24 04:35:49;;;;;;;3.90;2.80;;;;;;;13.00;68.09;101933.69;5029418;28;20037;-88
2022/10/24 04:38:15;;;;;;;4.80;2.60;;;;;;;13.03;67.78;101928.34;5029390;28;20029;-85
2022/10/24 04:40:43;;;;;;;6.60;2.58;;;;;;;12.99;67.78;101921.59;5028845;28;20487;-89
2022/10/24 04:43:09;;;;;;;7.50;2.90;;;;;;;12.86;67.75;101893.47;5046410;28;20091;-86
2022/10/24 04:45:34;;;;;;;5.90;2.97;;;;;;;13.08;67.71;101927.28;5045066;28;20029;-82
2022/10/24 04:48:00;;;;;;;6.68;3.75;;;;;;;12.93;67.73;101913.13;5028202;28;20041;-92
2022/10/24 04:50:25;;;;;;;9.68;5.38;;;;;;;12.92;68.21;101921.81;5012957;28;20120;-91
2022/10/24 04:52:51;;;;;;;15.73;8.50;;;;;;;12.90;68.47;101918.44;5045624;28;20509;-87
2022/10/24 04:55:16;;;;;;;20.25;9.02;;;;;;;12.92;68.74;101911.44;5020429;28;20033;-86
2022/10/24 04:57:42;;;;;;;17.40;7.90;;;;;;;12.86;69.16;101903.88;5050204;28;20025;-91
2022/10/24 05:00:08;;;;;;;17.55;7.40;;;;;;;12.98;69.09;101914.69;5024208;28;20021;-79
2022/10/24 05:02:33;;;;;;;12.38;6.45;;;;;;;12.89;69.58;101911.56;5026954;28;20030;-83
2022/10/24 05:04:59;;;;;;;12.60;4.82;;;;;;;12.80;70.25;101911.91;4991404;28;20029;-80
2022/10/24 05:07:24;;;;;;;4.63;3.00;;;;;;;12.80;71.05;101917.09;5033423;28;20091;-91
2022/10/24 05:09:50;;;;;;;9.73;2.85;;;;;;;13.03;71.76;101921.41;5001861;28;20040;-96
2022/10/24 05:12:16;;;;;;;6.90;3.35;;;;;;;13.14;71.08;101921.84;4996146;28;20069;-79
2022/10/24 05:14:41;;;;;;;7.47;4.15;;;;;;;13.22;70.12;101939.75;5029342;28;20414;-86
2022/10/24 05:17:07;;;;;;;7.47;2.90;;;;;;;13.06;70.02;101923.03;5021967;28;20035;-86
2022/10/24 05:19:32;;;;;;;9.32;2.83;;;;;;;13.07;69.92;101911.72;5023012;28;20044;-86
2022/10/24 05:21:58;;;;;;;10.35;4.43;;;;;;;13.37;70.08;101944.38;5054187;28;20033;-92
2022/10/24 05:24:23;;;;;;;8.93;5.47;;;;;;;13.24;69.25;101906.75;5015452;28;20080;-88
2022/10/24 05:26:49;;;;;;;9.38;5.32;;;;;;;13.48;68.42;101937.00;5046079;28;20030;-84
2022/10/24 05:29:14;;;;;;;16.20;5.40;;;;;;;13.69;68.02;101950.03;5043448;28;20040;-93
2022/10/24 05:31:40;;;;;;;10.20;5.15;;;;;;;13.76;67.73;101964.44;4980244;28;20033;-88
2022/10/24 05:34:05;;;;;;;11.93;6.30;;;;;;;13.64;67.01;101967.56;5009122;28;20033;-87
2022/10/24 05:36:31;;;;;;;25.83;7.88;;;;;;;13.55;67.17;101980.91;5004005;28;20080;-84
2022/10/24 05:38:56;;;;;;;14.38;6.90;;;;;;;13.45;67.49;101968.28;5012273;28;20034;-94
2022/10/24 05:41:22;;;;;;;13.90;7.47;;;;;;;13.76;66.64;101975.72;5018363;28;20522;-89
2022/10/24 05:43:47;;;;;;;20.40;9.18;;;;;;;13.65;68.27;101982.25;4990865;28;20103;-84
2022/10/24 05:46:13;;;;;;;16.88;8.73;;;;;;;13.54;67.94;101955.84;5046864;28;20094;-81
2022/10/24 05:48:38;;;;;;;21.20;8.23;;;;;;;13.60;66.17;101955.59;5030035;28;20026;-89
2022/10/24 05:51:04;;;;;;;26.25;7.35;;;;;;;13.82;67.65;101979.81;5038762;28;20025;-90
2022/10/24 05:53:30;;;;;;;12.00;4.68;;;;;;;13.81;67.24;101979.88;4999874;28;20029;-92
2022/10/24 05:55:56;;;;;;;9.20;3.67;;;;;;;13.92;68.17;101973.31;5003783;28;20143;-95
2022/10/24 05:58:21;;;;;;;5.72;4.05;;;;;;;14.25;66.16;101973.66;5008777;28;20110;-95
2022/10/24 06:00:48;;;;;;;10.07;4.70;;;;;;;14.30;67.14;101969.09;5022711;28;20037;-92
2022/10/24 06:03:13;;;;;;;5.50;3.88;;;;;;;14.65;66.38;101943.31;5019240;28;20483;-89
2022/10/24 06:05:39;;;;;;;9.15;3.83;;;;;;;14.87;62.97;101951.00;5018449;28;20044;-86
2022/10/24 06:08:04;;;;;;;8.15;4.07;;;;;;;15.02;62.28;101978.94;5008322;28;20091;-87
2022/10/24 06:10:32;;;;;;;8.85;4.20;;;;;;;15.00;62.17;101988.59;5033928;28;20029;-95
2022/10/24 06:12:57;;;;;;;8.73;3.90;;;;;;;15.23;63.10;101997.94;5008277;28;20509;-89
2022/10/24 06:15:23;;;;;;;7.15;3.42;;;;;;;14.85;61.83;101997.97;5000897;28;20058;-92
2022/10/24 06:17:49;;;;;;;11.05;4.60;;;;;;;14.69;62.63;101986.53;5008696;28;20033;-85
2022/10/24 06:20:14;;;;;;;20.67;5.75;;;;;;;14.88;62.65;101986.56;5015541;28;20054;-91
2022/10/24 06:22:40;;;;;;;12.05;6.35;;;;;;;14.80;61.39;102014.72;5011903;28;20552;-85
2022/10/24 06:25:06;;;;;;;12.23;5.57;;;;;;;14.72;64.23;102012.44;5018378;28;20544;-85
2022/10/24 06:27:32;;;;;;;10.82;5.97;;;;;;;14.52;62.63;102010.69;4991695;28;20041;-86
2022/10/24 06:29:57;;;;;;;8.82;5.18;;;;;;;14.33;63.96;101997.59;5013682;28;20025;-88
2022/10/24 06:32:23;;;;;;;15.50;5.55;;;;;;;14.31;63.56;101990.78;5015013;28;20048;-94
2022/10/24 06:34:49;;;;;;;9.18;5.32;;;;;;;14.28;63.68;101981.34;4997082;28;20059;-89
2022/10/24 06:37:14;;;;;;;9.40;5.63;;;;;;;14.23;65.19;101985.03;5013599;28;20026;-93
2022/10/24 06:39:40;;;;;;;9.90;5.82;;;;;;;14.28;63.49;101986.56;5006498;28;20040;-83
2022/10/24 06:42:05;;;;;;;13.50;6.18;;;;;;;14.39;63.84;101993.06;5021721;28;20025;-93
2022/10/24 06:44:31;;;;;;;25.38;5.78;;;;;;;14.41;63.79;101991.22;5050318;22;20057;-90
2022/10/24 06:46:57;;;;;;;8.85;4.95;;;;;;;14.34;63.56;101990.63;5013504;28;20116;-86
2022/10/24 06:49:22;;;;;;;14.48;5.13;;;;;;;14.26;63.57;101984.94;5030005;28;20025;-86
2022/10/24 06:51:48;;;;;;;8.30;4.90;;;;;;;14.41;64.24;102005.09;5029512;28;20033;-84
2022/10/24 06:54:14;;;;;;;7.72;3.80;;;;;;;14.20;65.24;101982.59;5030235;28;20032;-85
2022/10/24 06:56:39;;;;;;;7.00;4.10;;;;;;;14.28;65.32;101980.50;5028242;28;20068;-85
2022/10/24 06:59:13;;;;;;;8.82;4.60;;;;;;;14.81;65.00;102009.44;5045412;28;20064;-84
2022/10/24 07:01:39;;;;;;;9.73;5.03;;;;;;;15.57;63.55;102012.03;5013112;28;20033;-88
2022/10/24 07:04:04;;;;;;;16.45;7.97;;;;;;;15.44;63.25;102023.03;5012743;28;20107;-84
2022/10/24 07:06:30;;;;;;;7.60;4.50;;;;;;;15.70;63.88;102008.78;5011428;28;20030;-91
2022/10/24 07:08:56;;;;;;;8.43;4.93;;;;;;;15.93;63.06;102025.09;5030750;28;20497;-85
2022/10/24 07:11:22;;;;;;;8.02;4.85;;;;;;;15.71;61.70;102018.28;5028745;28;20525;-89
2022/10/24 07:13:48;;;;;;;30.73;13.15;;;;;;;15.58;61.92;102013.72;5011738;28;20025;-87
2022/10/24 07:16:13;;;;;;;11.90;6.47;;;;;;;15.60;61.75;102017.97;4994956;28;20025;-88
2022/10/24 07:18:39;;;;;;;10.98;4.65;;;;;;;15.52;60.72;102014.84;4998867;28;20045;-84
2022/10/24 07:21:16;;;;;;;9.80;4.32;;;;;;;15.28;61.35;102010.78;5027305;28;20032;-92
2022/10/24 07:23:41;;;;;;;18.30;8.18;;;;;;;15.35;61.66;102001.78;5013568;28;20084;-79
2022/10/24 07:26:09;;;;;;;8.60;4.13;;;;;;;15.35;61.37;102007.00;5028690;28;20033;-90
2022/10/24 07:28:34;;;;;;;84.88;37.38;;;;;;;15.39;61.31;102014.56;5011450;28;20028;-87
2022/10/24 07:31:00;;;;;;;15.73;7.85;;;;;;;15.43;60.64;102002.22;5012312;28;20029;-84
2022/10/24 07:33:26;;;;;;;9.57;4.43;;;;;;;15.34;60.28;102000.06;5011889;28;20049;-85
2022/10/24 07:35:51;;;;;;;12.75;5.85;;;;;;;15.58;60.51;101996.28;5011811;28;20025;-84
2022/10/24 07:38:17;;;;;;;10.80;3.45;;;;;;;15.52;58.57;101987.91;5013052;28;20030;-94
2022/10/24 07:40:42;;;;;;;4.95;3.00;;;;;;;15.68;58.95;102005.41;5029943;28;20428;-92
2022/10/24 07:43:08;;;;;;;6.68;4.20;;;;;;;15.80;58.33;101997.88;5012146;28;20049;-89
2022/10/24 07:45:33;;;;;;;8.40;3.30;;;;;;;15.91;57.49;101987.75;4993911;28;20037;-88
2022/10/24 07:47:59;;;;;;;4.10;2.65;;;;;;;15.69;58.13;101965.34;5012084;28;20415;-86
2022/10/24 07:50:25;;;;;;;5.82;3.58;;;;;;;16.03;57.49;101998.47;5029465;28;20079;-93
2022/10/24 07:52:51;;;;;;;16.20;3.53;;;;;;;16.04;58.56;101987.09;4996520;28;20109;-87
2022/10/24 07:55:16;;;;;;;6.70;3.55;;;;;;;16.10;57.78;101991.16;5011389;28;20029;-88
2022/10/24 07:57:42;;;;;;;12.13;4.88;;;;;;;16.13;57.70;101988.41;5028949;28;20026;-86
2022/10/24 08:00:08;;;;;;;7.35;3.63;;;;;;;16.15;57.53;101983.09;5027804;28;20037;-86
2022/10/24 08:02:34;;;;;;;5.25;3.20;;;;;;;16.16;57.07;101998.69;5027619;28;20037;-79
2022/10/24 08:04:59;;;;;;;7.45;3.88;;;;;;;16.27;57.64;101998.13;5028606;28;20034;-79
2022/10/24 08:07:25;;;;;;;11.88;4.32;;;;;;;16.41;57.87;101987.81;5029544;28;20398;-83
2022/10/24 08:09:50;;;;;;;5.20;3.22;;;;;;;16.45;57.03;101988.50;5012259;28;20025;-88
2022/10/24 08:12:16;;;;;;;10.07;4.13;;;;;;;16.43;57.24;101983.38;5028993;28;20040;-79
2022/10/24 08:14:42;;;;;;;8.38;3.75;;;;;;;16.56;56.88;101999.25;5011568;28;20053;-84
2022/10/24 08:17:07;;;;;;;4.82;3.58;;;;;;;16.67;56.17;101994.28;5032006;28;20068;-87
2022/10/24 08:19:33;;;;;;;8.65;4.07;;;;;;;16.52;56.32;101977.69;5000283;28;20119;-90
2022/10/24 08:21:59;;;;;;;8.98;4.45;;;;;;;16.85;56.19;101995.13;5014830;28;20034;-93
2022/10/24 08:24:24;;;;;;;7.53;4.10;;;;;;;16.92;55.90;101976.44;5010981;28;20105;-87
2022/10/24 08:26:50;;;;;;;8.00;4.22;;;;;;;16.88;55.52;101985.34;5015340;28;20058;-91
2022/10/24 08:29:21;;;;;;;7.50;4.07;;;;;;;16.94;55.65;101967.66;4996020;28;20025;-89
2022/10/24 08:31:50;;;;;;;10.13;5.05;;;;;;;17.03;55.14;101956.69;5027329;28;20120;-87
2022/10/24 08:34:16;;;;;;;8.75;5.28;;;;;;;17.25;55.48;101980.72;5011480;28;20030;-85
2022/10/24 08:36:42;;;;;;;10.65;4.75;;;;;;;17.41;55.26;101983.34;5011593;28;20040;-83
2022/10/24 08:39:07;;;;;;;7.57;3.95;;;;;;;17.40;54.90;101961.56;5028412;28;20491;-80
2022/10/24 08:41:39;;;;;;;6.97;3.97;;;;;;;17.53;54.59;101971.34;5027981;28;20025;-83
2022/10/24 08:44:38;;;;;;;13.77;3.83;;;;;;;17.54;54.27;101970.41;5029291;28;20532;-90
2022/10/24 08:47:04;;;;;;;10.38;4.00;;;;;;;17.64;54.24;101979.41;5001878;28;20044;-90
2022/10/24 08:49:45;;;;;;;5.57;3.15;;;;;;;17.76;54.38;101976.13;5046810;28;20034;-89
2022/10/24 08:52:46;;;;;;;10.13;3.15;;;;;;;17.75;53.75;101970.03;5028170;28;20055;-85
2022/10/24 08:55:17;;;;;;;11.77;4.80;;;;;;;17.66;53.84;101965.31;5030241;28;20490;-88
2022/10/24 08:57:44;;;;;;;8.25;4.43;;;;;;;17.81;54.09;101955.78;5013545;28;20030;-90
2022/10/24 09:00:33;;;;;;;8.35;3.92;;;;;;;18.04;53.89;101970.13;4994572;28;20064;-93
2022/10/24 09:03:05;;;;;;;6.70;3.83;;;;;;;18.15;52.73;101975.56;5006488;28;20036;-91
2022/10/24 09:05:36;;;;;;;7.53;4.00;;;;;;;18.19;54.88;101964.00;4999399;28;20060;-86
2022/10/24 09:08:24;;;;;;;9.75;4.85;;;;;;;18.09;52.35;101944.50;5048028;28;20037;-82
2022/10/24 09:10:58;;;;;;;12.38;5.35;;;;;;;18.15;52.42;101953.78;5013341;28;20411;-87
2022/10/24 09:13:24;;;;;;;7.38;4.38;;;;;;;18.16;52.19;101951.06;5015427;28;20025;-87
2022/10/24 09:15:50;;;;;;;8.75;4.25;;;;;;;18.33;52.51;101956.13;5012774;28;20410;-82
2022/10/24 09:18:21;;;;;;;11.43;5.78;;;;;;;18.70;52.68;101966.19;5018061;28;20576;-83
2022/10/24 09:20:47;;;;;;;8.80;4.07;;;;;;;18.79;50.99;101960.38;5032200;28;20026;-84
2022/10/24 09:23:12;;;;;;;6.78;4.18;;;;;;;18.90;51.66;101955.31;5013492;28;20030;-84
2022/10/24 09:25:38;;;;;;;9.93;5.10;;;;;;;18.95;51.38;101944.50;5014250;28;20092;-86
2022/10/24 09:28:04;;;;;;;8.45;4.97;;;;;;;18.93;50.59;101921.00;5015066;28;20044;-87
2022/10/24 09:30:30;;;;;;;12.48;6.10;;;;;;;18.95;50.56;101950.59;5015239;28;21099;-84
2022/10/24 09:32:56;;;;;;;10.48;4.57;;;;;;;18.99;50.67;101935.53;5013461;28;20542;-85
2022/10/24 09:35:26;;;;;;;12.55;4.45;;;;;;;19.06;50.42;101931.53;5014243;28;20029;-86
2022/10/24 09:37:56;;;;;;;11.07;4.63;;;;;;;19.07;50.41;101934.06;5013688;28;20033;-82
2022/10/24 09:40:29;;;;;;;9.18;5.15;;;;;;;19.14;50.76;101927.50;5014362;28;20057;-83
2022/10/24 09:43:00;;;;;;;14.73;5.22;;;;;;;19.31;50.13;101941.31;5030279;28;20049;-86
2022/10/24 09:45:37;;;;;;;12.60;5.37;;;;;;;19.40;50.36;101936.31;5031470;28;20499;-88
2022/10/24 09:48:22;;;;;;;8.98;3.95;;;;;;;19.45;49.94;101936.00;5030368;28;20021;-83
2022/10/24 09:50:48;;;;;;;11.32;5.50;;;;;;;19.45;49.96;101915.00;5032621;28;20120;-83
2022/10/24 09:53:28;;;;;;;14.45;4.97;;;;;;;19.51;49.58;101906.75;4995960;28;20402;-81
2022/10/24 09:55:59;;;;;;;7.70;4.30;;;;;;;19.60;49.59;101921.06;5029072;28;20037;-84
2022/10/24 09:58:31;;;;;;;11.20;4.75;;;;;;;19.73;49.79;101916.69;4994324;28;20030;-83
2022/10/24 10:01:19;;;;;;;8.80;4.55;;;;;;;19.78;49.35;101925.09;5012796;28;20088;-88
2022/10/24 10:04:04;;;;;;;9.10;4.43;;;;;;;19.75;49.38;101913.00;5030725;28;20052;-87
2022/10/24 10:06:31;;;;;;;11.88;4.15;;;;;;;19.92;49.60;101908.41;5013876;28;20104;-80
2022/10/24 10:08:56;;;;;;;11.60;5.22;;;;;;;19.94;48.50;101893.38;5030723;28;20025;-85
2022/10/24 10:11:26;;;;;;;7.95;4.20;;;;;;;20.09;48.66;101908.09;4997184;28;20495;-84
2022/10/24 10:13:53;;;;;;;10.43;4.80;;;;;;;20.03;48.62;101895.38;5011930;28;20121;-81
2022/10/24 10:16:33;;;;;;;10.38;4.78;;;;;;;20.15;48.71;101902.41;5009397;28;20033;-83
2022/10/24 10:19:20;;;;;;;11.88;5.60;;;;;;;20.08;48.52;101879.31;4999728;28;20029;-87
2022/10/24 10:22:24;;;;;;;9.40;4.72;;;;;;;20.20;50.46;101902.94;4997850;28;20116;-86
2022/10/24 10:24:50;;;;;;;9.50;4.75;;;;;;;20.19;47.78;101893.38;5022694;28;20422;-83
2022/10/24 10:27:21;;;;;;;10.40;4.30;;;;;;;20.30;47.85;101890.00;4994857;28;20040;-83
2022/10/24 10:29:47;;;;;;;10.10;4.53;;;;;;;20.25;47.72;101877.16;5029219;28;20029;-82
2022/10/24 10:32:18;;;;;;;8.20;4.60;;;;;;;20.37;47.42;101879.91;5027578;28;20033;-86
2022/10/24 10:35:35;;;;;;;6.88;4.00;;;;;;;20.56;47.40;101882.94;5013669;28;20056;-88
2022/10/24 10:38:30;;;;;;;14.90;7.80;;;;;;;20.57;46.87;101877.59;5020549;28;20515;-81
2022/10/24 10:41:02;;;;;;;10.65;4.82;;;;;;;20.50;46.67;101857.09;5030166;28;20392;-83
2022/10/24 10:43:47;;;;;;;9.15;4.65;;;;;;;20.65;46.73;101890.19;5013103;28;20140;-84
2022/10/24 10:46:15;;;;;;;13.52;3.92;;;;;;;20.76;46.25;101890.25;5014340;28;20029;-84
2022/10/24 10:48:56;;;;;;;7.68;3.42;;;;;;;20.81;46.24;101877.59;5029629;28;20458;-87
2022/10/24 10:51:27;;;;;;;10.45;5.70;;;;;;;21.00;46.16;101886.78;5029503;28;20059;-87
2022/10/24 10:54:05;;;;;;;10.93;3.80;;;;;;;21.09;45.57;101883.47;5031595;28;20037;-90
2022/10/24 10:56:34;;;;;;;6.97;3.70;;;;;;;21.09;45.24;101872.97;5027145;28;20033;-86
2022/10/24 10:59:10;;;;;;;9.60;4.38;;;;;;;21.10;45.11;101859.69;5011952;28;20021;-90
2022/10/24 11:01:56;;;;;;;8.82;3.85;;;;;;;21.14;44.56;101869.06;5028196;28;20025;-86
2022/10/24 11:04:46;;;;;;;6.93;3.42;;;;;;;21.11;44.91;101847.38;5027584;28;20029;-84
2022/10/24 11:07:47;;;;;;;5.70;3.30;;;;;;;21.07;44.15;101832.78;5010611;28;20037;-83
2022/10/24 11:10:16;;;;;;;7.22;3.83;;;;;;;21.12;43.95;101820.94;5030520;28;20087;-89
2022/10/24 11:12:42;;;;;;;7.53;3.38;;;;;;;21.53;43.77;101866.19;5045130;28;20117;-84
2022/10/24 11:15:25;;;;;;;7.82;3.88;;;;;;;21.64;43.69;101860.97;5028426;28;20219;-94
2022/10/24 11:17:57;;;;;;;7.75;3.92;;;;;;;21.62;43.63;101858.44;5033900;28;20072;-87
2022/10/24 11:20:28;;;;;;;6.95;3.72;;;;;;;21.47;43.25;101836.75;4999964;28;20418;-89
2022/10/24 11:23:09;;;;;;;10.10;3.97;;;;;;;21.70;43.75;101858.69;5012368;28;20029;-83
2022/10/24 11:25:45;;;;;;;9.25;3.83;;;;;;;21.81;43.64;101849.13;5029331;28;20033;-88
2022/10/24 11:28:19;;;;;;;9.15;3.75;;;;;;;21.67;43.78;101843.13;5014353;28;20037;-90
2022/10/24 11:31:09;;;;;;;6.70;3.40;;;;;;;21.74;44.19;101848.78;5012597;28;20025;-89
2022/10/24 11:33:53;;;;;;;9.32;4.18;;;;;;;21.69;48.14;101829.84;5035938;28;20421;-88
2022/10/24 11:36:22;;;;;;;5.38;3.00;;;;;;;21.80;45.03;101831.66;5042053;28;20045;-92
2022/10/24 11:38:54;;;;;;;9.88;3.90;;;;;;;21.78;44.50;101821.25;4991777;28;20128;-87
2022/10/24 11:41:33;;;;;;;7.18;3.63;;;;;;;21.75;47.46;101821.50;5026226;28;20072;-90
2022/10/24 11:44:02;;;;;;;5.93;3.47;;;;;;;21.78;45.36;101829.16;5026686;28;20104;-87
2022/10/24 11:46:38;;;;;;;11.18;4.60;;;;;;;21.82;44.70;101820.03;5028284;28;20034;-86
2022/10/24 11:49:23;;;;;;;10.15;4.22;;;;;;;21.78;46.39;101815.97;5013371;28;20064;-90
2022/10/24 11:51:59;;;;;;;8.07;3.63;;;;;;;21.80;45.89;101795.63;5023488;28;20029;-85
2022/10/24 11:54:30;;;;;;;6.10;3.30;;;;;;;21.77;43.38;101790.59;5029031;28;20108;-81
2022/10/24 11:56:58;;;;;;;19.80;9.55;;;;;;;21.73;43.03;101789.16;5013004;28;20106;-86
2022/10/24 11:59:24;;;;;;;35.17;16.90;;;;;;;21.67;42.75;101769.41;4995618;28;20387;-87
2022/10/24 12:01:51;;;;;;;12.45;5.53;;;;;;;21.72;42.82;101769.03;5011825;28;20041;-83
2022/10/24 12:04:52;;;;;;;7.18;3.75;;;;;;;21.74;42.81;101780.31;5028077;28;20033;-84
2022/10/24 12:07:43;;;;;;;7.60;3.47;;;;;;;21.68;42.56;101765.81;5024565;28;20414;-88
2022/10/24 12:10:21;;;;;;;9.77;4.78;;;;;;;21.64;42.50;101753.00;5028333;28;20091;-88
2022/10/24 12:13:24;;;;;;;6.75;3.17;;;;;;;21.54;42.75;101742.34;5027710;28;20026;-81
2022/10/24 12:15:56;;;;;;;4.75;2.72;;;;;;;21.64;42.11;101753.84;5028050;28;20037;-86
2022/10/24 12:18:43;;;;;;;7.37;3.33;;;;;;;21.70;42.48;101748.09;5028635;28;20040;-85
2022/10/24 12:21:18;;;;;;;6.00;3.25;;;;;;;21.60;42.21;101728.69;5019425;28;20046;-92
2022/10/24 12:23:57;;;;;;;8.23;3.92;;;;;;;21.54;42.60;101721.28;5028299;28;20034;-85
2022/10/24 12:26:33;;;;;;;7.70;2.88;;;;;;;21.69;42.30;101725.34;5027640;28;20028;-91
2022/10/24 12:29:05;;;;;;;7.18;3.97;;;;;;;21.68;42.12;101728.09;4993502;28;20452;-88
2022/10/24 12:31:31;;;;;;;;;;;;;;;21.73;42.28;101725.97;5012497;28;20025;-87
2022/10/24 12:34:15;;;;;;;10.20;3.83;;;;;;;21.83;42.61;101724.28;5028800;28;19963;-85
2022/10/24 12:37:01;;;;;;;9.20;4.30;;;;;;;21.85;42.75;101726.78;5031023;28;20071;-83
2022/10/24 12:39:36;;;;;;;9.30;4.55;;;;;;;21.70;42.50;101713.00;5034638;28;20120;-87
2022/10/24 12:42:02;;;;;;;9.98;4.22;;;;;;;21.81;43.03;101723.53;5032356;28;20441;-84
2022/10/24 12:44:31;;;;;;;7.15;3.63;;;;;;;21.84;42.64;101718.03;5032600;28;20560;-85
2022/10/24 12:46:56;;;;;;;13.52;3.83;;;;;;;21.89;41.91;101710.59;5033143;28;20785;-85
2022/10/24 12:49:29;;;;;;;7.82;3.55;;;;;;;21.90;41.91;101712.28;5015435;28;20497;-85
2022/10/24 12:51:55;;;;;;;8.15;4.15;;;;;;;21.91;41.99;101698.13;5032677;28;20026;-85
2022/10/24 12:54:41;;;;;;;6.97;4.00;;;;;;;21.93;41.66;101700.69;5032261;28;20044;-86
2022/10/24 12:57:07;;;;;;;7.32;3.50;;;;;;;22.01;41.89;101709.63;5032287;28;20031;-87
2022/10/24 12:59:49;;;;;;;8.43;3.65;;;;;;;22.03;41.83;101706.88;5033094;28;20029;-92
2022/10/24 13:02:14;;;;;;;9.90;3.80;;;;;;;22.05;41.96;101705.78;5016147;28;20033;-87
2022/10/24 13:04:49;;;;;;;11.60;5.43;;;;;;;22.07;42.50;101708.34;5030530;28;20032;-87
2022/10/24 13:07:43;;;;;;;7.57;4.00;;;;;;;21.99;42.68;101703.63;5031194;28;20029;-85
2022/10/24 13:10:44;;;;;;;13.43;4.88;;;;;;;21.92;42.56;101683.16;5030261;28;20112;-80
2022/10/24 13:13:43;;;;;;;10.48;3.92;;;;;;;22.08;42.78;101701.25;5032086;28;20028;-86
2022/10/24 13:16:30;;;;;;;10.43;4.80;;;;;;;22.03;42.46;101689.28;5032927;28;20037;-84
2022/10/24 13:19:08;;;;;;;12.27;4.63;;;;;;;21.98;42.44;101683.53;5032451;28;20026;-84
2022/10/24 13:22:02;;;;;;;9.63;4.60;;;;;;;22.02;42.89;101692.00;5032428;28;20078;-84
2022/10/24 13:24:39;;;;;;;13.68;5.72;;;;;;;21.96;42.83;101681.97;5024148;28;20061;-81
2022/10/24 13:27:07;;;;;;;14.13;5.35;;;;;;;22.01;42.58;101700.88;5022719;28;20049;-89
2022/10/24 13:29:33;;;;;;;11.68;5.45;;;;;;;22.03;43.10;101680.53;5030201;28;20053;-90
2022/10/24 13:32:04;;;;;;;9.65;4.57;;;;;;;22.05;42.36;101684.72;5032716;28;20072;-84
2022/10/24 13:34:43;;;;;;;8.77;4.57;;;;;;;22.09;42.51;101681.84;5031161;28;20457;-83
